createdAt,value
2018-08-19T00:01:08.880Z,99.90
2018-08-19T00:03:36.967Z,99.90
2018-08-19T00:06:04.846Z,99.90
2018-08-19T00:08:32.690Z,99.90
2018-08-19T00:11:08.691Z,99.90
2018-08-19T00:13:36.931Z,99.90
2018-08-19T00:16:04.720Z,99.90
2018-08-19T00:18:32.916Z,99.90
2018-08-19T00:21:00.690Z,99.90
2018-08-19T00:23:29.541Z,99.90
2018-08-19T00:25:58.135Z,99.90
2018-08-19T00:28:25.853Z,99.90
2018-08-19T00:30:54.036Z,99.90
2018-08-19T00:33:21.747Z,99.90
2018-08-19T00:35:49.578Z,99.90
2018-08-19T00:38:17.625Z,99.90
2018-08-19T00:40:45.312Z,99.90
2018-08-19T00:43:13.022Z,99.90
2018-08-19T00:45:41.008Z,99.90
2018-08-19T00:48:10.632Z,99.90
2018-08-19T00:50:38.430Z,99.90
2018-08-19T00:53:07.196Z,99.90
2018-08-19T00:55:40.909Z,99.90
2018-08-19T00:58:15.967Z,99.90
2018-08-19T01:00:43.740Z,99.90
2018-08-19T01:03:12.245Z,99.90
2018-08-19T01:05:40.175Z,99.90
2018-08-19T01:08:08.508Z,99.90
2018-08-19T01:10:36.260Z,99.90
2018-08-19T01:13:04.044Z,99.90
2018-08-19T01:15:31.830Z,99.90
2018-08-19T01:17:59.599Z,99.90
2018-08-19T01:20:27.426Z,99.90
2018-08-19T01:22:55.495Z,99.90
2018-08-19T01:25:23.233Z,99.90
2018-08-19T01:27:52.084Z,99.90
2018-08-19T01:30:21.320Z,99.90
2018-08-19T01:32:49.177Z,99.90
2018-08-19T01:35:17.453Z,99.90
2018-08-19T01:37:45.268Z,99.90
2018-08-19T01:40:16.532Z,99.90
2018-08-19T01:42:44.940Z,99.90
2018-08-19T01:45:12.814Z,99.90
2018-08-19T01:47:40.620Z,99.90
2018-08-19T01:50:11.279Z,99.90
2018-08-19T01:52:39.456Z,99.90
2018-08-19T01:55:07.366Z,99.90
2018-08-19T01:57:40.560Z,99.90
2018-08-19T02:00:08.784Z,99.90
2018-08-19T02:02:42.639Z,99.90
2018-08-19T02:05:10.355Z,99.90
2018-08-19T02:07:50.714Z,99.90
2018-08-19T02:10:21.167Z,99.90
2018-08-19T02:12:51.311Z,99.90
2018-08-19T02:15:20.638Z,99.90
2018-08-19T02:17:58.723Z,99.90
2018-08-19T02:20:31.207Z,99.90
2018-08-19T02:22:59.968Z,99.90
2018-08-19T02:25:31.685Z,99.90
2018-08-19T02:27:59.314Z,99.90
2018-08-19T02:30:27.293Z,99.90
2018-08-19T02:32:55.656Z,99.90
2018-08-19T02:35:23.256Z,99.90
2018-08-19T02:37:50.883Z,99.90
2018-08-19T02:40:23.979Z,99.90
2018-08-19T02:42:51.583Z,99.90
2018-08-19T02:45:19.168Z,99.90
2018-08-19T02:47:46.734Z,99.90
2018-08-19T02:50:14.335Z,99.90
2018-08-19T02:52:41.963Z,99.90
2018-08-19T02:55:09.550Z,99.90
2018-08-19T02:57:39.575Z,99.90
2018-08-19T03:00:07.919Z,99.90
2018-08-19T03:02:37.118Z,99.90
2018-08-19T03:05:05.501Z,99.90
2018-08-19T03:07:33.233Z,99.90
2018-08-19T03:10:06.196Z,99.90
2018-08-19T03:12:33.916Z,99.90
2018-08-19T03:15:01.571Z,99.90
2018-08-19T03:17:30.014Z,99.90
2018-08-19T03:19:58.534Z,99.90
2018-08-19T03:22:26.906Z,99.90
2018-08-19T03:24:55.056Z,99.90
2018-08-19T03:27:22.652Z,99.90
2018-08-19T03:29:57.885Z,99.90
2018-08-19T03:32:25.825Z,99.90
2018-08-19T03:35:35.052Z,99.90
2018-08-19T03:38:07.410Z,99.90
2018-08-19T03:40:35.447Z,99.90
2018-08-19T03:43:03.036Z,99.90
2018-08-19T03:45:30.807Z,99.90
2018-08-19T03:47:58.403Z,99.90
2018-08-19T03:50:26.921Z,99.90
2018-08-19T03:52:55.263Z,99.90
2018-08-19T03:55:32.908Z,99.90
2018-08-19T03:58:02.508Z,99.90
2018-08-19T04:00:32.172Z,99.90
2018-08-19T04:02:59.740Z,99.90
2018-08-19T04:05:38.363Z,99.90
2018-08-19T04:08:06.763Z,99.90
2018-08-19T04:10:34.368Z,99.90
2018-08-19T04:13:02.430Z,99.90
2018-08-19T04:15:30.037Z,99.90
2018-08-19T04:17:57.664Z,99.90
2018-08-19T04:20:26.074Z,99.90
2018-08-19T04:22:53.781Z,99.90
2018-08-19T04:25:40.008Z,99.90
2018-08-19T04:28:08.560Z,99.90
2018-08-19T04:30:36.152Z,99.90
2018-08-19T04:33:03.753Z,99.90
2018-08-19T04:35:31.876Z,99.90
2018-08-19T04:37:59.455Z,99.90
2018-08-19T04:40:29.799Z,99.90
2018-08-19T04:42:57.536Z,99.90
2018-08-19T04:45:26.803Z,99.90
2018-08-19T04:47:55.695Z,99.90
2018-08-19T04:50:23.893Z,99.90
2018-08-19T04:52:51.476Z,99.90
2018-08-19T04:55:19.193Z,99.90
2018-08-19T04:57:51.716Z,99.90
2018-08-19T05:00:20.261Z,99.90
2018-08-19T05:02:47.934Z,99.90
2018-08-19T05:05:15.629Z,99.90
2018-08-19T05:07:43.641Z,99.90
2018-08-19T05:10:15.003Z,99.90
2018-08-19T05:12:42.644Z,99.90
2018-08-19T05:15:10.259Z,99.90
2018-08-19T05:17:37.876Z,99.90
2018-08-19T05:20:12.932Z,99.90
2018-08-19T05:22:40.654Z,99.90
2018-08-19T05:25:08.254Z,99.90
2018-08-19T05:27:36.274Z,99.90
2018-08-19T05:30:08.311Z,99.90
2018-08-19T05:32:35.896Z,99.90
2018-08-19T05:35:03.501Z,99.90
2018-08-19T05:37:31.084Z,99.90
2018-08-19T05:39:59.808Z,99.90
2018-08-19T05:42:27.439Z,99.90
2018-08-19T05:44:55.091Z,99.90
2018-08-19T05:47:24.455Z,99.90
2018-08-19T05:49:52.317Z,99.90
2018-08-19T05:52:22.902Z,99.90
2018-08-19T05:54:54.005Z,99.90
2018-08-19T05:57:21.647Z,99.90
2018-08-19T05:59:58.894Z,99.90
2018-08-19T06:02:35.836Z,99.90
2018-08-19T06:05:03.929Z,99.90
2018-08-19T06:07:31.607Z,99.90
2018-08-19T06:09:59.204Z,99.90
2018-08-19T06:12:26.821Z,99.90
2018-08-19T06:15:00.881Z,99.90
2018-08-19T06:17:55.140Z,99.90
2018-08-19T06:20:23.867Z,99.90
2018-08-19T06:22:51.858Z,99.90
2018-08-19T06:25:19.861Z,99.90
2018-08-19T06:27:48.858Z,99.90
2018-08-19T06:30:19.262Z,99.90
2018-08-19T06:32:46.929Z,99.90
2018-08-19T06:35:17.187Z,99.90
2018-08-19T06:37:47.596Z,99.90
2018-08-19T06:40:19.588Z,99.90
2018-08-19T06:42:47.899Z,99.90
2018-08-19T06:45:17.019Z,99.90
2018-08-19T06:47:49.407Z,99.90
2018-08-19T06:50:24.820Z,99.90
2018-08-19T06:52:53.120Z,99.90
2018-08-19T06:55:21.412Z,99.90
2018-08-19T06:57:49.388Z,99.90
2018-08-19T07:00:23.565Z,99.90
2018-08-19T07:02:51.310Z,99.90
2018-08-19T07:05:19.421Z,99.90
2018-08-19T07:07:47.153Z,99.90
2018-08-19T07:10:22.742Z,99.40
2018-08-19T07:12:57.352Z,98.40
2018-08-19T07:15:24.986Z,97.50
2018-08-19T07:17:53.496Z,97.20
2018-08-19T07:20:36.215Z,96.50
2018-08-19T07:23:03.882Z,95.50
2018-08-19T07:25:38.119Z,94.00
2018-08-19T07:28:06.166Z,93.60
2018-08-19T07:30:33.847Z,91.30
2018-08-19T07:33:04.063Z,91.70
2018-08-19T07:35:31.738Z,91.20
2018-08-19T07:37:59.452Z,92.60
2018-08-19T07:40:27.447Z,91.80
2018-08-19T07:42:55.167Z,90.60
2018-08-19T07:45:22.827Z,90.50
2018-08-19T07:47:50.758Z,91.20
2018-08-19T07:50:18.414Z,91.10
2018-08-19T07:52:46.058Z,89.70
2018-08-19T07:55:18.139Z,88.20
2018-08-19T07:57:45.910Z,90.00
2018-08-19T08:00:18.714Z,88.60
2018-08-19T08:02:46.378Z,89.00
2018-08-19T08:05:14.031Z,90.90
2018-08-19T08:07:45.677Z,88.30
2018-08-19T08:10:13.332Z,87.30
2018-08-19T08:12:41.054Z,89.20
2018-08-19T08:15:08.961Z,88.20
2018-08-19T08:17:37.388Z,90.10
2018-08-19T08:20:05.074Z,87.90
2018-08-19T08:22:33.658Z,87.50
2018-08-19T08:25:01.498Z,89.00
2018-08-19T08:27:30.275Z,86.70
2018-08-19T08:29:58.589Z,88.20
2018-08-19T08:32:26.253Z,88.20
2018-08-19T08:34:55.914Z,85.00
2018-08-19T08:37:23.859Z,84.20
2018-08-19T08:39:57.190Z,86.90
2018-08-19T08:42:29.187Z,82.30
2018-08-19T08:44:56.820Z,80.90
2018-08-19T08:47:24.437Z,79.20
2018-08-19T08:49:52.322Z,78.30
2018-08-19T08:52:24.470Z,80.00
2018-08-19T08:54:53.538Z,83.20
2018-08-19T08:57:23.504Z,83.40
2018-08-19T08:59:51.539Z,82.80
2018-08-19T09:02:19.148Z,87.20
2018-08-19T09:04:59.208Z,88.90
2018-08-19T09:07:27.103Z,86.70
2018-08-19T09:09:54.827Z,86.70
2018-08-19T09:12:28.440Z,88.40
2018-08-19T09:14:56.054Z,83.40
2018-08-19T09:17:25.299Z,86.30
2018-08-19T09:19:52.908Z,87.10
2018-08-19T09:22:20.516Z,84.10
2018-08-19T09:24:48.816Z,87.10
2018-08-19T09:27:17.530Z,82.10
2018-08-19T09:30:48.413Z,79.90
2018-08-19T09:33:16.032Z,84.50
2018-08-19T09:35:44.414Z,84.90
2018-08-19T09:38:16.403Z,91.00
2018-08-19T09:40:44.484Z,92.40
2018-08-19T09:43:19.549Z,91.90
2018-08-19T09:45:47.569Z,92.60
2018-08-19T09:48:15.624Z,92.10
2018-08-19T09:50:43.820Z,92.20
2018-08-19T09:53:11.480Z,93.60
2018-08-19T09:55:40.242Z,95.40
2018-08-19T09:58:10.539Z,95.80
2018-08-19T10:00:43.659Z,96.80
2018-08-19T10:03:11.357Z,95.30
2018-08-19T10:05:39.421Z,95.40
2018-08-19T10:08:08.659Z,94.10
2018-08-19T10:10:37.268Z,94.40
2018-08-19T10:13:06.130Z,96.10
2018-08-19T10:15:35.010Z,95.80
2018-08-19T10:18:05.059Z,96.50
2018-08-19T10:20:35.184Z,97.00
2018-08-19T10:23:04.074Z,97.20
2018-08-19T10:25:31.729Z,94.90
2018-08-19T10:27:59.883Z,94.20
2018-08-19T10:30:27.498Z,94.70
2018-08-19T10:33:02.004Z,94.10
2018-08-19T10:35:30.522Z,94.80
2018-08-19T10:37:58.607Z,95.50
2018-08-19T10:40:26.237Z,93.30
2018-08-19T10:42:58.064Z,93.40
2018-08-19T10:45:25.809Z,94.30
2018-08-19T10:47:53.525Z,94.60
2018-08-19T10:50:25.903Z,93.60
2018-08-19T10:52:53.570Z,94.60
2018-08-19T10:55:21.280Z,94.80
2018-08-19T10:57:50.763Z,95.50
2018-08-19T11:00:29.060Z,95.60
2018-08-19T11:03:11.163Z,95.60
2018-08-19T11:05:42.731Z,95.40
2018-08-19T11:08:13.641Z,96.50
2018-08-19T11:10:41.532Z,96.50
2018-08-19T11:13:11.834Z,96.80
2018-08-19T11:15:44.369Z,97.20
2018-08-19T11:18:21.399Z,95.60
2018-08-19T11:20:49.797Z,96.50
2018-08-19T11:23:20.629Z,95.70
2018-08-19T11:25:49.423Z,96.80
2018-08-19T11:28:23.708Z,95.40
2018-08-19T11:30:51.632Z,95.00
2018-08-19T11:33:24.981Z,96.00
2018-08-19T11:35:53.071Z,95.90
2018-08-19T11:38:20.982Z,97.70
2018-08-19T11:40:48.728Z,96.00
2018-08-19T11:43:36.089Z,95.20
2018-08-19T11:46:06.844Z,95.10
2018-08-19T11:48:36.433Z,94.90
2018-08-19T11:51:04.687Z,95.00
2018-08-19T11:53:32.778Z,95.30
2018-08-19T11:56:18.744Z,94.70
2018-08-19T11:58:50.427Z,93.90
2018-08-19T12:01:25.089Z,94.20
2018-08-19T12:03:58.312Z,94.70
2018-08-19T12:06:27.676Z,94.30
2018-08-19T12:08:57.821Z,94.40
2018-08-19T12:11:27.952Z,93.70
2018-08-19T12:14:02.174Z,93.30
2018-08-19T12:16:31.455Z,95.60
2018-08-19T12:19:00.084Z,94.70
2018-08-19T12:21:34.958Z,94.60
2018-08-19T12:24:14.448Z,94.10
2018-08-19T12:26:43.772Z,93.50
2018-08-19T12:29:13.271Z,94.10
2018-08-19T12:31:49.561Z,95.20
2018-08-19T12:34:44.383Z,94.20
2018-08-19T12:37:23.345Z,94.50
2018-08-19T12:39:52.854Z,95.60
2018-08-19T12:42:21.029Z,94.60
2018-08-19T12:44:59.044Z,97.30
2018-08-19T12:47:28.122Z,95.30
2018-08-19T12:50:00.109Z,96.00
2018-08-19T12:52:29.487Z,95.10
2018-08-19T12:55:01.755Z,96.80
2018-08-19T12:57:29.602Z,94.60
2018-08-19T13:00:02.185Z,95.60
2018-08-19T13:02:31.332Z,94.70
2018-08-19T13:04:59.211Z,95.50
2018-08-19T13:07:26.963Z,93.80
2018-08-19T13:09:55.115Z,94.70
2018-08-19T13:12:22.789Z,95.50
2018-08-19T13:14:50.427Z,94.30
2018-08-19T13:17:18.614Z,94.60
2018-08-19T13:19:47.816Z,94.50
2018-08-19T13:22:15.424Z,94.70
2018-08-19T13:24:43.427Z,95.20
2018-08-19T13:27:11.644Z,96.70
2018-08-19T13:29:39.277Z,93.80
2018-08-19T13:32:07.443Z,95.50
2018-08-19T13:34:35.116Z,95.00
2018-08-19T13:37:05.371Z,94.60
2018-08-19T13:39:36.020Z,95.00
2018-08-19T13:42:06.226Z,93.90
2018-08-19T13:47:55.222Z,94.70
2018-08-19T13:50:26.066Z,94.90
2018-08-19T13:52:54.160Z,94.90
2018-08-19T13:55:22.641Z,95.50
2018-08-19T13:57:52.576Z,94.90
2018-08-19T14:00:22.011Z,94.50
2018-08-19T14:02:50.584Z,94.30
2018-08-19T14:05:18.292Z,93.60
2018-08-19T14:07:46.351Z,93.40
2018-08-19T14:10:14.498Z,94.50
2018-08-19T14:12:42.142Z,96.30
2018-08-19T14:15:10.180Z,94.70
2018-08-19T14:17:38.098Z,95.50
2018-08-19T14:20:06.349Z,93.80
2018-08-19T14:22:35.517Z,95.10
2018-08-19T14:25:03.339Z,94.40
2018-08-19T14:27:31.048Z,93.00
2018-08-19T14:30:00.688Z,92.90
2018-08-19T14:32:33.163Z,93.40
2018-08-19T14:35:02.164Z,92.30
2018-08-19T14:37:37.581Z,92.90
2018-08-19T14:40:06.187Z,92.80
2018-08-19T14:42:33.984Z,93.10
2018-08-19T14:45:01.609Z,92.70
2018-08-19T14:47:29.414Z,91.40
2018-08-19T14:49:59.695Z,92.10
2018-08-19T14:52:27.828Z,92.20
2018-08-19T14:54:55.432Z,92.20
2018-08-19T14:57:23.543Z,93.30
2018-08-19T14:59:51.167Z,92.10
2018-08-19T15:02:18.899Z,92.40
2018-08-19T15:04:47.349Z,91.70
2018-08-19T15:07:25.047Z,92.60
2018-08-19T15:09:53.247Z,92.20
2018-08-19T15:12:23.129Z,92.40
2018-08-19T15:14:55.818Z,92.60
2018-08-19T15:17:25.912Z,91.50
2018-08-19T15:20:06.224Z,92.00
2018-08-19T15:22:36.353Z,92.80
2018-08-19T15:25:05.884Z,92.30
2018-08-19T15:27:34.003Z,92.80
2018-08-19T15:30:02.032Z,91.80
2018-08-19T15:32:29.884Z,92.30
2018-08-19T15:34:57.337Z,91.60
2018-08-19T15:37:26.582Z,92.40
2018-08-19T15:39:54.304Z,91.80
2018-08-19T15:42:23.293Z,91.70
2018-08-19T15:44:51.341Z,92.60
2018-08-19T15:47:19.041Z,91.10
2018-08-19T15:49:47.330Z,93.00
2018-08-19T15:52:19.371Z,92.00
2018-08-19T15:54:51.378Z,91.70
2018-08-19T15:57:19.001Z,92.10
2018-08-19T15:59:46.903Z,92.50
2018-08-19T16:02:14.573Z,92.50
2018-08-19T16:04:46.341Z,92.50
2018-08-19T16:07:23.439Z,92.30
2018-08-19T16:09:51.259Z,92.60
2018-08-19T16:12:30.677Z,93.00
2018-08-19T16:15:00.759Z,93.60
2018-08-19T16:20:16.515Z,93.00
2018-08-19T16:22:44.095Z,92.40
2018-08-19T16:25:11.683Z,92.50
2018-08-19T16:27:39.958Z,93.00
2018-08-19T16:30:07.588Z,92.90
2018-08-19T16:32:35.247Z,92.30
2018-08-19T16:35:04.428Z,92.20
2018-08-19T16:37:32.101Z,92.50
2018-08-19T16:39:59.829Z,93.10
2018-08-19T16:42:27.757Z,93.30
2018-08-19T16:44:55.393Z,93.40
2018-08-19T16:47:22.999Z,93.50
2018-08-19T16:49:50.930Z,93.60
2018-08-19T16:52:18.678Z,95.30
2018-08-19T16:54:46.288Z,93.60
2018-08-19T16:57:31.047Z,93.30
2018-08-19T16:59:58.676Z,93.00
2018-08-19T17:02:27.827Z,93.40
2018-08-19T17:04:55.756Z,93.80
2018-08-19T17:07:23.419Z,97.00
2018-08-19T17:09:51.051Z,97.10
2018-08-19T17:12:19.913Z,97.10
2018-08-19T17:14:47.514Z,97.30
2018-08-19T17:17:17.426Z,97.00
2018-08-19T17:19:47.181Z,99.10
2018-08-19T17:22:15.074Z,98.30
2018-08-19T17:24:42.726Z,98.70
2018-08-19T17:27:10.649Z,99.90
2018-08-19T17:29:58.771Z,99.90
2018-08-19T17:32:26.957Z,99.90
2018-08-19T17:34:55.229Z,99.90
2018-08-19T17:37:23.070Z,99.90
2018-08-19T17:39:51.180Z,99.90
2018-08-19T17:42:20.613Z,99.90
2018-08-19T17:44:48.253Z,99.90
2018-08-19T17:47:42.105Z,99.90
2018-08-19T17:50:27.107Z,99.90
2018-08-19T17:52:57.807Z,99.90
2018-08-19T17:55:25.656Z,99.90
2018-08-19T17:57:57.981Z,99.90
2018-08-19T18:00:38.839Z,99.90
2018-08-19T18:03:06.792Z,99.90
2018-08-19T18:05:36.077Z,99.90
2018-08-19T18:08:07.181Z,99.90
2018-08-19T18:10:36.580Z,99.90
2018-08-19T18:13:12.435Z,99.90
2018-08-19T18:15:41.212Z,99.90
2018-08-19T18:18:15.686Z,99.90
2018-08-19T18:20:43.304Z,99.90
2018-08-19T18:23:16.705Z,99.90
2018-08-19T18:25:47.419Z,99.90
2018-08-19T18:28:33.304Z,99.90
2018-08-19T18:31:15.648Z,99.90
2018-08-19T18:34:02.282Z,99.90
2018-08-19T18:36:33.954Z,99.90
2018-08-19T18:39:05.241Z,99.90
2018-08-19T18:41:34.484Z,99.90
2018-08-19T18:44:13.967Z,99.90
2018-08-19T18:46:50.077Z,99.90
2018-08-19T18:49:22.025Z,99.90
2018-08-19T18:51:54.017Z,99.90
2018-08-19T18:54:34.173Z,99.90
2018-08-19T18:57:05.960Z,99.90
2018-08-19T18:59:34.348Z,99.90
2018-08-19T19:02:03.193Z,99.90
2018-08-19T19:04:30.829Z,99.90
2018-08-19T19:06:58.917Z,99.90
2018-08-19T19:09:30.736Z,99.90
2018-08-19T19:11:58.793Z,99.90
2018-08-19T19:14:26.813Z,99.90
2018-08-19T19:16:56.735Z,99.90
2018-08-19T19:19:24.636Z,99.90
2018-08-19T19:21:58.680Z,99.90
2018-08-19T19:24:30.907Z,99.90
2018-08-19T19:26:58.512Z,99.90
2018-08-19T19:29:27.084Z,99.90
2018-08-19T19:32:18.099Z,99.90
2018-08-19T19:34:49.886Z,99.90
2018-08-19T19:37:17.975Z,99.90
2018-08-19T19:39:46.425Z,99.90
2018-08-19T19:42:18.694Z,99.90
2018-08-19T19:44:46.355Z,99.90
2018-08-19T19:47:14.090Z,99.90
2018-08-19T19:49:47.566Z,99.90
2018-08-19T19:52:15.124Z,99.90
2018-08-19T19:54:43.211Z,99.90
2018-08-19T19:57:12.305Z,99.90
2018-08-19T19:59:39.955Z,99.90
2018-08-19T20:02:11.350Z,99.90
2018-08-19T20:04:39.436Z,99.90
2018-08-19T20:07:07.636Z,99.90
2018-08-19T20:09:35.849Z,99.90
2018-08-19T20:12:05.182Z,99.90
2018-08-19T20:14:37.673Z,99.90
2018-08-19T20:17:11.912Z,99.90
2018-08-19T20:19:46.274Z,99.90
2018-08-19T20:22:14.983Z,99.90
2018-08-19T20:24:42.651Z,99.90
2018-08-19T20:27:10.792Z,99.90
2018-08-19T20:29:38.427Z,99.90
2018-08-19T20:32:06.120Z,99.90
2018-08-19T20:34:35.560Z,99.90
2018-08-19T20:37:03.265Z,99.90
2018-08-19T20:39:30.904Z,99.90
2018-08-19T20:42:00.166Z,99.90
2018-08-19T20:44:28.207Z,99.90
2018-08-19T20:46:59.753Z,99.90
2018-08-19T20:49:28.724Z,99.90
2018-08-19T20:51:56.541Z,99.90
2018-08-19T20:54:25.261Z,99.90
2018-08-19T20:56:53.171Z,99.90
2018-08-19T20:59:25.939Z,99.90
2018-08-19T21:01:56.376Z,99.90
2018-08-19T21:04:26.778Z,99.90
2018-08-19T21:06:58.385Z,99.90
2018-08-19T21:09:29.839Z,99.90
2018-08-19T21:11:57.486Z,99.90
2018-08-19T21:18:59.421Z,99.90
2018-08-19T21:21:27.516Z,99.90
2018-08-19T21:23:55.132Z,99.90
2018-08-19T21:26:22.743Z,99.90
2018-08-19T21:28:56.068Z,99.90
2018-08-19T21:31:23.685Z,99.90
2018-08-19T21:33:51.325Z,99.90
2018-08-19T21:36:19.644Z,99.90
2018-08-19T21:38:47.262Z,99.90
2018-08-19T21:41:14.871Z,99.90
2018-08-19T21:43:42.796Z,99.90
2018-08-19T21:46:10.404Z,99.90
2018-08-19T21:48:38.256Z,99.90
2018-08-19T21:51:10.454Z,99.90
2018-08-19T21:53:39.452Z,99.90
2018-08-19T21:56:07.388Z,99.90
2018-08-19T21:58:35.083Z,99.90
2018-08-19T22:01:03.900Z,99.90
2018-08-19T22:03:37.085Z,99.90
2018-08-19T22:06:05.481Z,99.90
2018-08-19T22:08:33.068Z,99.90
2018-08-19T22:11:00.771Z,99.90
2018-08-19T22:13:28.844Z,99.90
2018-08-19T22:15:56.465Z,99.90
2018-08-19T22:18:27.190Z,99.90
2018-08-19T22:21:04.652Z,99.90
2018-08-19T22:23:40.429Z,99.90
2018-08-19T22:26:08.853Z,99.90
2018-08-19T22:28:36.617Z,99.90
2018-08-19T22:31:10.312Z,99.90
2018-08-19T22:33:38.152Z,99.90
2018-08-19T22:36:05.766Z,99.90
2018-08-19T22:38:33.836Z,99.90
2018-08-19T22:41:01.508Z,99.90
2018-08-19T22:43:29.164Z,99.90
2018-08-19T22:45:56.827Z,99.90
2018-08-19T22:48:34.364Z,99.90
2018-08-19T22:51:02.012Z,99.90
2018-08-19T22:53:29.632Z,99.90
2018-08-19T22:55:57.251Z,99.90
2018-08-19T22:58:24.873Z,99.90
2018-08-19T23:00:52.480Z,99.90
2018-08-19T23:03:20.106Z,99.90
2018-08-19T23:05:47.744Z,99.90
2018-08-19T23:08:18.976Z,99.90
2018-08-19T23:10:46.607Z,99.90
2018-08-19T23:13:24.281Z,99.90
2018-08-19T23:15:51.880Z,99.90
2018-08-19T23:18:19.480Z,99.90
2018-08-19T23:20:47.059Z,99.90
2018-08-19T23:23:15.005Z,99.90
2018-08-19T23:25:42.661Z,99.90
2018-08-19T23:28:10.333Z,99.90
2018-08-19T23:30:37.917Z,99.90
2018-08-19T23:33:05.850Z,99.90
2018-08-19T23:35:33.539Z,99.90
2018-08-19T23:38:01.163Z,99.90
2018-08-19T23:40:28.739Z,99.90
2018-08-19T23:42:56.319Z,99.90
2018-08-19T23:45:24.028Z,99.90
2018-08-19T23:47:51.632Z,99.90
2018-08-19T23:50:19.260Z,99.90
2018-08-19T23:52:47.132Z,99.90
2018-08-19T23:55:14.799Z,99.90
2018-08-19T23:57:42.417Z,99.90
